Time;durP1;ratioP1;P1;durP2;ratioP2;P2;SDS_P1;SDS_P2;PMS_P1;PMS_P2;Temp;Humidity;BMP_temperature;BMP_pressure;BME280_temperature;BME280_humidity;BME280_pressure;Samples;Min_cycle;Max_cycle;Signal;HPM_P1;HPM_P2
2022/04/03 00:01:23;;;;;;;8.65;3.78;;;;;;;-0.45;73.75;102266.19;5035072;28;20460;-58
2022/04/03 00:03:49;;;;;;;6.72;4.22;;;;;;;-0.54;72.86;102260.56;5035554;28;20029;-58
2022/04/03 00:06:14;;;;;;;6.38;3.70;;;;;;;-0.55;73.27;102254.53;5034944;28;20457;-58
2022/04/03 00:08:40;;;;;;;7.97;3.83;;;;;;;-0.46;73.34;102262.72;5034795;28;20043;-58
2022/04/03 00:11:05;;;;;;;5.95;3.83;;;;;;;-0.44;74.46;102263.69;5035025;28;20040;-58
2022/04/03 00:13:30;;;;;;;7.22;3.92;;;;;;;-0.43;74.44;102264.56;5035077;28;20036;-58
2022/04/03 00:15:56;;;;;;;6.88;4.30;;;;;;;-0.43;74.56;102270.59;5035007;28;20110;-58
2022/04/03 00:18:22;;;;;;;5.38;3.72;;;;;;;-0.40;74.50;102269.91;5034873;28;20045;-58
2022/04/03 00:20:47;;;;;;;6.75;4.30;;;;;;;-0.42;74.97;102262.09;5034283;28;20128;-59
2022/04/03 00:23:13;;;;;;;5.32;3.60;;;;;;;-0.42;75.08;102264.66;5035093;28;20108;-59
2022/04/03 00:25:38;;;;;;;6.50;3.80;;;;;;;-0.43;74.65;102264.56;5034830;28;20112;-58
2022/04/03 00:28:04;;;;;;;6.65;3.92;;;;;;;-0.43;75.42;102264.56;5034308;28;20444;-58
2022/04/03 00:30:29;;;;;;;5.97;3.47;;;;;;;-0.50;75.58;102257.31;5034988;28;20121;-58
2022/04/03 00:32:54;;;;;;;7.05;3.70;;;;;;;-0.53;75.92;102254.63;5034884;28;20095;-58
2022/04/03 00:35:20;;;;;;;6.28;4.07;;;;;;;-0.56;75.79;102257.00;5034215;28;20460;-59
2022/04/03 00:37:46;;;;;;;5.82;3.90;;;;;;;-0.54;76.02;102270.84;5034271;28;20061;-58
2022/04/03 00:40:12;;;;;;;8.73;3.92;;;;;;;-0.58;75.49;102262.06;5034756;28;20030;-58
2022/04/03 00:42:38;;;;;;;5.28;4.05;;;;;;;-0.58;76.37;102259.50;5034854;28;20026;-58
2022/04/03 00:45:05;;;;;;;5.72;3.78;;;;;;;-0.57;76.31;102265.53;5034563;28;20353;-58
2022/04/03 00:47:31;;;;;;;11.20;3.75;;;;;;;-0.61;76.09;102258.44;5034693;28;20033;-58
2022/04/03 00:49:57;;;;;;;6.68;3.90;;;;;;;-0.61;76.63;102261.00;5034489;28;20044;-58
2022/04/03 00:52:23;;;;;;;7.95;4.00;;;;;;;-0.65;75.89;102265.09;5034115;28;20037;-58
2022/04/03 00:54:48;;;;;;;6.18;4.10;;;;;;;-0.67;76.56;102256.41;5034804;28;20037;-58
2022/04/03 00:57:14;;;;;;;6.78;4.03;;;;;;;-0.65;76.55;102259.94;5034768;28;20132;-58
2022/04/03 00:59:43;;;;;;;7.35;4.10;;;;;;;-0.70;76.33;102261.41;5034536;28;20041;-57
2022/04/03 01:02:08;;;;;;;5.10;3.75;;;;;;;-0.76;76.64;102263.63;5034539;28;20112;-58
2022/04/03 01:04:37;;;;;;;7.10;4.10;;;;;;;-0.74;77.41;102262.94;5034302;28;20151;-59
2022/04/03 01:07:02;;;;;;;8.50;4.18;;;;;;;-0.79;77.33;102259.22;5034018;28;20080;-58
2022/04/03 01:09:27;;;;;;;9.13;4.60;;;;;;;-0.83;77.15;102259.84;5034700;28;20068;-59
2022/04/03 01:11:53;;;;;;;9.20;3.85;;;;;;;-0.86;77.62;102251.06;5034350;28;20037;-58
2022/04/03 01:14:39;;;;;;;5.88;4.03;;;;;;;-0.86;76.99;102251.06;5034766;28;20040;-59
2022/04/03 01:17:05;;;;;;;7.20;4.10;;;;;;;-0.84;77.16;102259.75;5037986;28;20037;-59
2022/04/03 01:19:31;;;;;;;7.38;4.30;;;;;;;-0.90;77.13;102265.44;5038132;28;20037;-58
2022/04/03 01:21:57;;;;;;;7.15;4.32;;;;;;;-0.87;78.07;102257.91;5037819;28;20049;-58
2022/04/03 01:24:24;;;;;;;9.35;4.13;;;;;;;-0.92;77.90;102250.75;5038114;28;20025;-58
2022/04/03 01:26:50;;;;;;;7.13;4.35;;;;;;;-0.92;78.11;102253.31;5037966;28;20033;-58
2022/04/03 01:29:15;;;;;;;6.05;3.72;;;;;;;-0.96;78.13;102253.94;5037931;28;20111;-58
2022/04/03 01:31:41;;;;;;;7.70;4.07;;;;;;;-1.00;78.20;102252.00;5037586;28;20065;-59
2022/04/03 01:34:07;;;;;;;8.15;4.30;;;;;;;-0.93;78.27;102260.13;5037554;28;20520;-58
2022/04/03 01:36:32;;;;;;;7.13;3.58;;;;;;;-1.09;78.96;102232.72;5038041;28;20026;-58
2022/04/03 01:38:57;;;;;;;7.75;4.30;;;;;;;-1.00;78.75;102250.31;5037792;28;20041;-58
2022/04/03 01:41:23;;;;;;;6.13;3.85;;;;;;;-1.00;78.30;102247.72;5037504;28;20033;-58
2022/04/03 01:43:48;;;;;;;8.52;4.03;;;;;;;-1.04;79.12;102250.97;5037394;28;20069;-58
2022/04/03 01:46:13;;;;;;;7.93;4.40;;;;;;;-1.06;79.03;102248.31;5037419;28;20025;-58
2022/04/03 01:48:39;;;;;;;6.18;4.00;;;;;;;-1.08;79.21;102243.88;5037551;28;20116;-58
2022/04/03 01:51:04;;;;;;;7.80;4.13;;;;;;;-1.10;79.39;102243.78;5037151;28;20037;-58
2022/04/03 01:53:29;;;;;;;6.65;4.10;;;;;;;-1.10;79.62;102246.34;5037340;28;20353;-58
2022/04/03 01:56:12;;;;;;;6.22;3.95;;;;;;;-1.17;79.26;102244.22;5037439;28;20120;-58
2022/04/03 01:58:38;;;;;;;9.48;4.70;;;;;;;-1.31;79.18;102229.72;5037317;28;20040;-58
2022/04/03 02:01:04;;;;;;;9.25;4.30;;;;;;;-1.20;79.94;102246.63;5037146;28;20120;-58
2022/04/03 02:03:30;;;;;;;8.02;4.00;;;;;;;-1.21;79.43;102247.41;5037177;28;20147;-58
2022/04/03 02:05:57;;;;;;;8.98;4.22;;;;;;;-1.25;80.08;102240.34;5037164;28;20088;-58
2022/04/03 02:08:23;;;;;;;7.65;4.10;;;;;;;-1.28;80.15;102241.88;5037153;28;20041;-59
2022/04/03 02:10:49;;;;;;;8.07;4.30;;;;;;;-1.38;80.29;102237.88;5037605;28;20029;-58
2022/04/03 02:13:14;;;;;;;6.88;3.90;;;;;;;-1.37;79.94;102242.19;5037234;28;20048;-58
2022/04/03 02:15:40;;;;;;;6.25;4.10;;;;;;;-1.36;80.80;102238.84;5037168;28;20835;-58
2022/04/03 02:18:05;;;;;;;9.80;4.13;;;;;;;-1.42;80.37;102241.09;5036808;28;20033;-58
2022/04/03 02:20:34;;;;;;;7.47;4.75;;;;;;;-1.46;80.70;102223.72;5036717;28;20357;-58
2022/04/03 02:22:59;;;;;;;7.63;4.05;;;;;;;-1.45;80.68;102244.34;5036840;28;20040;-58
2022/04/03 02:25:25;;;;;;;6.47;4.13;;;;;;;-1.42;80.21;102241.97;5036895;28;20029;-58
2022/04/03 02:27:51;;;;;;;7.93;4.57;;;;;;;-1.41;81.18;102238.59;5036825;28;20065;-59
2022/04/03 02:30:16;;;;;;;7.72;4.32;;;;;;;-1.42;80.96;102248.78;5036678;28;20382;-58
2022/04/03 02:32:42;;;;;;;8.32;4.70;;;;;;;-1.42;80.68;102235.94;5036405;28;20032;-59
2022/04/03 02:35:10;;;;;;;9.13;4.63;;;;;;;-1.49;80.53;102226.13;5036787;28;20072;-58
2022/04/03 02:37:37;;;;;;;7.70;4.50;;;;;;;-1.46;80.69;102239.13;5036468;28;20069;-58
2022/04/03 02:40:05;;;;;;;6.57;4.25;;;;;;;-1.49;80.69;102234.69;5036549;28;20033;-58
2022/04/03 02:42:30;;;;;;;9.45;4.70;;;;;;;-1.51;80.75;102227.69;5036469;28;20444;-58
2022/04/03 02:44:56;;;;;;;7.00;3.97;;;;;;;-1.61;80.58;102210.03;5036397;28;20029;-58
2022/04/03 02:47:22;;;;;;;7.53;4.22;;;;;;;-1.48;80.82;102230.44;5035991;28;20043;-58
2022/04/03 02:49:49;;;;;;;7.75;4.40;;;;;;;-1.55;81.03;102228.31;5036239;28;20048;-58
2022/04/03 02:52:15;;;;;;;9.85;4.25;;;;;;;-1.52;81.09;102236.19;5036645;28;20021;-58
2022/04/03 02:54:41;;;;;;;8.63;4.85;;;;;;;-1.58;81.31;102234.19;5036467;28;20502;-58
2022/04/03 02:57:07;;;;;;;9.05;4.50;;;;;;;-1.58;81.33;102241.88;5036104;28;20532;-59
2022/04/03 02:59:33;;;;;;;6.63;4.60;;;;;;;-1.65;81.84;102238.88;5035620;28;20022;-58
2022/04/03 03:01:58;;;;;;;8.88;4.70;;;;;;;-1.60;81.92;102240.91;5035919;28;20038;-58
2022/04/03 03:04:23;;;;;;;9.30;4.35;;;;;;;-1.69;81.57;102240.34;5036430;28;20044;-58
2022/04/03 03:06:49;;;;;;;10.10;4.88;;;;;;;-1.66;82.07;102244.78;5035853;28;20030;-58
2022/04/03 03:09:14;;;;;;;11.93;4.70;;;;;;;-1.70;82.14;102242.81;5035894;28;20040;-58
2022/04/03 03:11:40;;;;;;;8.63;4.72;;;;;;;-1.70;81.60;102248.84;5036068;28;20044;-58
2022/04/03 03:14:05;;;;;;;9.85;4.47;;;;;;;-1.73;82.20;102248.66;5035932;28;20072;-58
2022/04/03 03:16:30;;;;;;;10.23;4.22;;;;;;;-1.71;82.15;102236.81;5036123;28;20052;-58
2022/04/03 03:18:56;;;;;;;9.30;4.68;;;;;;;-1.74;81.68;102243.47;5035287;28;20030;-58
2022/04/03 03:21:21;;;;;;;7.85;4.60;;;;;;;-1.79;82.44;102241.50;5035631;28;20092;-58
2022/04/03 03:23:46;;;;;;;10.15;4.88;;;;;;;-1.76;82.49;102249.41;5035639;28;20104;-58
2022/04/03 03:26:11;;;;;;;8.88;4.93;;;;;;;-1.74;82.33;102246.94;5035685;28;20034;-58
2022/04/03 03:28:38;;;;;;;7.55;4.72;;;;;;;-1.76;82.21;102254.53;5035664;28;20054;-58
2022/04/03 03:31:03;;;;;;;8.88;4.72;;;;;;;-1.80;82.04;102255.13;5035628;28;20124;-58
2022/04/03 03:33:28;;;;;;;6.43;4.30;;;;;;;-1.83;82.41;102257.50;5035392;28;20029;-58
2022/04/03 03:35:55;;;;;;;10.93;4.93;;;;;;;-1.79;81.93;102254.34;5035576;28;20065;-58
2022/04/03 03:38:20;;;;;;;7.57;4.82;;;;;;;-1.83;82.57;102257.50;5035010;28;20389;-58
2022/04/03 03:40:45;;;;;;;8.23;4.30;;;;;;;-1.86;82.54;102252.19;5035417;28;20067;-58
2022/04/03 03:43:11;;;;;;;5.70;4.45;;;;;;;-1.89;82.67;102251.13;5035492;28;20098;-58
2022/04/03 03:45:36;;;;;;;7.10;4.40;;;;;;;-1.89;82.84;102256.25;5035256;28;20435;-58
2022/04/03 03:48:02;;;;;;;9.00;4.35;;;;;;;-1.96;82.69;102252.47;5035249;28;20498;-58
2022/04/03 03:50:27;;;;;;;6.47;4.55;;;;;;;-1.90;83.00;102255.38;5034875;28;20034;-58
2022/04/03 03:52:53;;;;;;;6.00;4.40;;;;;;;-1.92;83.34;102251.84;5035117;28;20040;-58
2022/04/03 03:55:18;;;;;;;10.73;4.97;;;;;;;-1.94;82.75;102252.56;5035171;28;20369;-58
2022/04/03 03:57:47;;;;;;;7.00;4.32;;;;;;;-1.98;83.30;102256.59;5035006;28;20037;-59
2022/04/03 04:00:13;;;;;;;8.60;4.65;;;;;;;-2.00;83.48;102253.06;5035151;28;20037;-58
2022/04/03 04:02:38;;;;;;;7.80;4.50;;;;;;;-1.96;83.35;102265.28;5035569;28;20083;-58
2022/04/03 04:05:05;;;;;;;8.52;4.63;;;;;;;-1.96;83.32;102260.16;5034981;28;20105;-58
2022/04/03 04:07:44;;;;;;;8.75;4.80;;;;;;;-1.99;83.42;102254.84;5034344;28;20480;-58
2022/04/03 04:10:12;;;;;;;6.90;4.97;;;;;;;-2.00;82.99;102265.00;5034823;28;20029;-59
2022/04/03 04:12:39;;;;;;;8.45;4.57;;;;;;;-2.04;83.19;102263.94;5035261;28;20033;-58
2022/04/03 04:15:05;;;;;;;9.77;5.00;;;;;;;-2.08;83.11;102266.25;5034951;28;20029;-58
2022/04/03 04:17:35;;;;;;;7.75;5.10;;;;;;;-2.10;83.58;102263.56;5034757;28;20065;-59
2022/04/03 04:20:00;;;;;;;6.30;4.47;;;;;;;-2.18;84.17;102255.41;5034944;28;20025;-58
2022/04/03 04:22:26;;;;;;;8.23;5.00;;;;;;;-2.17;84.21;102256.28;5034934;28;20052;-58
2022/04/03 04:24:51;;;;;;;6.57;4.65;;;;;;;-2.19;84.28;102255.31;5034815;28;20029;-58
2022/04/03 04:27:17;;;;;;;8.00;5.07;;;;;;;-2.16;83.72;102266.66;5034677;28;20048;-58
2022/04/03 04:29:42;;;;;;;7.75;4.80;;;;;;;-2.17;83.50;102269.13;5034926;28;20025;-58
2022/04/03 04:32:07;;;;;;;11.07;4.68;;;;;;;-2.17;84.23;102266.56;5034904;28;20340;-58
2022/04/03 04:34:33;;;;;;;8.15;4.90;;;;;;;-2.20;84.25;102266.34;5034617;28;20048;-58
2022/04/03 04:36:58;;;;;;;8.23;4.97;;;;;;;-2.22;84.43;102267.94;5034867;28;20120;-58
2022/04/03 04:39:23;;;;;;;9.80;4.90;;;;;;;-2.32;84.40;102263.94;5034619;28;20368;-58
2022/04/03 04:41:48;;;;;;;8.45;5.22;;;;;;;-2.29;84.16;102271.81;5034543;28;20048;-58
2022/04/03 04:44:14;;;;;;;7.90;4.82;;;;;;;-2.26;84.80;102273.69;5034594;28;20048;-58
2022/04/03 04:46:39;;;;;;;8.57;5.05;;;;;;;-2.31;84.72;102270.84;5034702;28;20098;-58
2022/04/03 04:49:04;;;;;;;7.78;4.95;;;;;;;-2.48;84.42;102245.84;5034676;28;20437;-58
2022/04/03 04:51:30;;;;;;;9.32;5.15;;;;;;;-2.39;84.72;102277.16;5039237;28;20037;-58
2022/04/03 04:53:55;;;;;;;9.88;5.32;;;;;;;-2.38;85.69;102272.94;5038659;28;20406;-58
2022/04/03 04:56:20;;;;;;;12.65;5.75;;;;;;;-2.36;85.50;102276.47;5038575;28;20033;-58
2022/04/03 04:58:45;;;;;;;8.80;5.38;;;;;;;-2.44;84.93;102273.47;5038390;28;20084;-59
2022/04/03 05:01:11;;;;;;;8.07;5.63;;;;;;;-2.43;85.73;102277.78;5038225;28;20026;-58
2022/04/03 05:03:36;;;;;;;9.65;5.60;;;;;;;-2.41;85.00;102288.09;5038116;28;20032;-58
2022/04/03 05:06:02;;;;;;;7.43;5.15;;;;;;;-2.40;85.76;102295.91;5038575;28;20408;-58
2022/04/03 05:08:29;;;;;;;10.55;5.47;;;;;;;-2.41;85.43;102295.78;5038518;28;20064;-58
2022/04/03 05:10:54;;;;;;;9.35;5.38;;;;;;;-2.36;85.83;102295.31;5038145;28;20041;-58
2022/04/03 05:13:25;;;;;;;8.75;5.60;;;;;;;-2.36;85.66;102296.97;5038270;28;20029;-58
2022/04/03 05:15:51;;;;;;;10.25;6.05;;;;;;;-2.41;85.91;102298.34;5038226;28;20408;-58
2022/04/03 05:18:17;;;;;;;8.95;5.40;;;;;;;-2.37;86.45;102295.19;5038114;28;20047;-58
2022/04/03 05:20:43;;;;;;;8.00;5.60;;;;;;;-2.30;85.34;102289.69;5038053;28;20049;-58
2022/04/03 05:23:08;;;;;;;7.90;5.13;;;;;;;-2.24;85.44;102302.84;5037830;28;20121;-58
2022/04/03 05:25:34;;;;;;;9.30;5.43;;;;;;;-2.21;85.18;102301.38;5037442;28;20119;-58
2022/04/03 05:27:59;;;;;;;8.55;6.13;;;;;;;-2.17;85.94;102300.78;5037889;28;20052;-58
2022/04/03 05:30:25;;;;;;;8.10;5.50;;;;;;;-2.11;85.52;102306.28;5038138;28;20037;-58
2022/04/03 05:32:50;;;;;;;9.93;5.70;;;;;;;-2.10;85.44;102299.47;5037764;28;20080;-57
2022/04/03 05:35:15;;;;;;;10.23;5.82;;;;;;;-2.08;86.05;102295.34;5037599;28;20030;-58
2022/04/03 05:37:41;;;;;;;9.75;5.97;;;;;;;-1.98;85.95;102313.03;5037873;28;20033;-58
2022/04/03 05:40:07;;;;;;;10.55;5.88;;;;;;;-1.95;85.42;102309.78;5036906;28;20029;-58
2022/04/03 05:42:34;;;;;;;10.23;6.20;;;;;;;-1.86;85.47;102318.00;5037030;28;20029;-58
2022/04/03 05:44:59;;;;;;;9.95;5.93;;;;;;;-1.97;85.88;102289.16;5037248;28;20083;-58
2022/04/03 05:47:25;;;;;;;9.57;5.93;;;;;;;-1.74;85.06;102317.88;5037575;28;20116;-59
2022/04/03 05:49:50;;;;;;;10.38;6.40;;;;;;;-1.67;85.12;102325.13;5037311;28;20037;-58
2022/04/03 05:52:15;;;;;;;12.18;5.95;;;;;;;-1.62;85.62;102308.34;5037503;28;20036;-58
2022/04/03 05:54:41;;;;;;;10.30;6.82;;;;;;;-1.49;85.56;102318.53;5037308;28;20013;-58
2022/04/03 05:57:07;;;;;;;11.27;7.07;;;;;;;-1.41;85.32;102320.75;5036997;28;20030;-58
2022/04/03 05:59:33;;;;;;;10.25;6.60;;;;;;;-1.36;85.95;102305.59;5037140;28;20021;-58
2022/04/03 06:01:58;;;;;;;14.55;8.05;;;;;;;-1.27;84.91;102319.00;5036794;28;20021;-58
2022/04/03 06:04:24;;;;;;;14.50;8.00;;;;;;;-1.20;84.86;102315.06;5037306;28;20140;-59
2022/04/03 06:06:49;;;;;;;14.43;8.18;;;;;;;-1.12;85.38;102316.41;5037120;28;20087;-58
2022/04/03 06:09:14;;;;;;;17.80;8.55;;;;;;;-1.04;84.99;102314.28;5037106;28;20037;-58
2022/04/03 06:11:39;;;;;;;13.43;8.40;;;;;;;-1.01;84.58;102325.59;5037340;28;20044;-58
2022/04/03 06:14:05;;;;;;;13.45;8.55;;;;;;;-0.89;85.09;102322.88;5036758;28;20467;-58
2022/04/03 06:16:31;;;;;;;15.45;7.43;;;;;;;-0.63;83.99;102327.75;5037071;28;20037;-58
2022/04/03 06:18:56;;;;;;;13.88;7.60;;;;;;;-0.56;83.44;102317.03;5036843;28;20033;-58
2022/04/03 06:21:22;;;;;;;12.55;7.07;;;;;;;-0.44;83.33;102332.22;5036923;28;20427;-58
2022/04/03 06:23:47;;;;;;;11.82;7.13;;;;;;;-0.43;83.32;102332.31;5035301;28;20051;-58
2022/04/03 06:26:12;;;;;;;14.10;7.80;;;;;;;-0.40;83.20;102337.63;5036740;28;20037;-58
2022/04/03 06:28:37;;;;;;;10.82;7.45;;;;;;;-0.30;83.51;102340.69;5036560;28;20176;-58
2022/04/03 06:31:03;;;;;;;11.35;7.10;;;;;;;-0.23;83.43;102335.09;5036905;28;20071;-58
2022/04/03 06:33:28;;;;;;;12.35;7.70;;;;;;;-0.24;83.33;102321.34;5036869;28;20025;-58
2022/04/03 06:35:54;;;;;;;16.15;7.28;;;;;;;-0.18;83.22;102331.97;5036525;28;20047;-59
2022/04/03 06:38:19;;;;;;;11.55;6.90;;;;;;;-0.21;83.14;102323.22;5036516;28;20087;-59
2022/04/03 06:40:50;;;;;;;11.10;6.43;;;;;;;-0.22;83.36;102322.31;5036359;28;20033;-58
2022/04/03 06:43:20;;;;;;;12.00;6.53;;;;;;;-0.23;83.34;102320.53;5036117;28;20108;-58
2022/04/03 06:45:46;;;;;;;11.18;6.65;;;;;;;-0.28;83.86;102310.81;5036599;28;20033;-58
2022/04/03 06:48:12;;;;;;;10.77;6.78;;;;;;;-0.17;84.34;102331.16;5036483;28;20037;-59
2022/04/03 06:50:37;;;;;;;12.13;6.68;;;;;;;-0.04;84.30;102323.31;5036338;28;20025;-58
2022/04/03 06:53:04;;;;;;;11.30;6.28;;;;;;;0.06;83.05;102319.50;5036163;28;20052;-59
2022/04/03 06:55:29;;;;;;;12.98;6.60;;;;;;;0.27;83.59;102318.06;5040950;28;20049;-58
2022/04/03 06:57:54;;;;;;;13.02;6.93;;;;;;;0.49;82.39;102314.91;5036317;28;20030;-59
2022/04/03 07:00:19;;;;;;;10.00;6.63;;;;;;;0.69;81.04;102313.34;5036326;28;20439;-59
2022/04/03 07:02:45;;;;;;;11.77;6.82;;;;;;;0.86;80.69;102321.91;5036331;28;20044;-58
2022/04/03 07:05:10;;;;;;;10.60;6.75;;;;;;;0.88;80.29;102318.56;5036090;28;20040;-59
2022/04/03 07:07:35;;;;;;;12.43;6.97;;;;;;;0.91;81.04;102323.00;5035874;28;20036;-59
2022/04/03 07:10:00;;;;;;;12.23;7.30;;;;;;;0.90;80.81;102316.06;5035770;28;20037;-58
2022/04/03 07:12:26;;;;;;;9.77;7.13;;;;;;;0.95;80.60;102324.94;5034958;28;20090;-58
2022/04/03 07:14:51;;;;;;;13.05;8.20;;;;;;;0.98;80.96;102318.25;5034714;28;20029;-59
2022/04/03 07:17:17;;;;;;;11.23;7.43;;;;;;;1.12;81.27;102323.16;5036007;28;20029;-59
2022/04/03 07:19:43;;;;;;;10.93;7.50;;;;;;;1.21;81.33;102323.63;5035758;28;20065;-59
2022/04/03 07:22:08;;;;;;;12.95;7.55;;;;;;;1.24;81.63;102318.59;5035505;28;20518;-59
2022/04/03 07:24:33;;;;;;;14.38;8.32;;;;;;;1.43;81.54;102318.66;5035536;28;20049;-58
2022/04/03 07:26:59;;;;;;;12.60;8.15;;;;;;;1.67;80.81;102330.16;5033816;28;20037;-59
2022/04/03 07:29:25;;;;;;;11.70;8.27;;;;;;;1.85;79.88;102317.19;5034681;28;20025;-59
2022/04/03 07:31:51;;;;;;;12.50;8.15;;;;;;;2.09;79.52;102328.63;5034926;28;20025;-59
2022/04/03 07:34:16;;;;;;;17.65;8.70;;;;;;;2.30;78.50;102318.34;5034845;28;20052;-59
2022/04/03 07:36:41;;;;;;;11.95;7.88;;;;;;;2.52;78.72;102321.88;5034416;28;20033;-59
2022/04/03 07:39:10;;;;;;;11.18;7.70;;;;;;;2.71;77.42;102327.91;5034442;28;20061;-59
2022/04/03 07:41:37;;;;;;;13.40;7.40;;;;;;;2.94;77.54;102330.56;5034820;28;20029;-59
2022/04/03 07:44:08;;;;;;;9.93;7.50;;;;;;;3.11;77.02;102324.38;5035088;28;20034;-59
2022/04/03 07:46:34;;;;;;;13.10;7.82;;;;;;;3.26;76.57;102325.00;5034850;28;20041;-60
2022/04/03 07:48:59;;;;;;;12.35;8.02;;;;;;;3.38;76.38;102325.47;5034186;28;20045;-59
2022/04/03 07:51:26;;;;;;;11.40;7.28;;;;;;;3.51;75.79;102334.59;5033641;28;20059;-59
2022/04/03 07:53:53;;;;;;;11.93;7.72;;;;;;;3.57;76.23;102331.38;5033961;28;20040;-59
2022/04/03 07:56:18;;;;;;;12.10;7.30;;;;;;;3.70;75.31;102329.31;5034473;28;20029;-59
2022/04/03 07:58:44;;;;;;;10.15;6.57;;;;;;;3.88;74.48;102320.47;5034266;28;20095;-59
2022/04/03 08:01:09;;;;;;;8.93;6.10;;;;;;;4.04;74.50;102321.09;5034431;28;20022;-59
2022/04/03 08:03:34;;;;;;;11.15;6.30;;;;;;;4.29;73.90;102329.78;5033734;28;20048;-60
2022/04/03 08:05:59;;;;;;;9.82;5.90;;;;;;;4.45;72.97;102322.59;5033784;28;20033;-60
2022/04/03 08:08:25;;;;;;;8.60;5.28;;;;;;;4.53;71.77;102320.25;5034567;28;20507;-59
2022/04/03 08:10:50;;;;;;;6.65;4.55;;;;;;;4.65;70.29;102320.69;5034217;28;20469;-59
2022/04/03 08:13:16;;;;;;;6.03;4.28;;;;;;;5.03;69.78;102324.53;5034530;28;20075;-60
2022/04/03 08:15:41;;;;;;;7.57;4.30;;;;;;;5.36;67.80;102327.38;5034579;28;20037;-59
2022/04/03 08:18:07;;;;;;;6.80;4.25;;;;;;;5.59;66.27;102317.69;5033577;28;20029;-57
2022/04/03 08:20:32;;;;;;;5.95;4.15;;;;;;;5.86;65.14;102325.44;5033387;28;20444;-57
2022/04/03 08:23:00;;;;;;;6.05;3.83;;;;;;;6.28;63.88;102320.59;5034303;28;20045;-59
2022/04/03 08:25:25;;;;;;;4.80;3.17;;;;;;;6.77;60.78;102320.19;5034420;28;20045;-60
2022/04/03 08:27:53;;;;;;;3.35;2.40;;;;;;;7.41;57.56;102324.38;5034236;28;20382;-59
2022/04/03 08:30:25;;;;;;;6.68;2.53;;;;;;;8.33;55.05;102319.41;5034793;28;20037;-59
2022/04/03 08:32:51;;;;;;;4.00;2.10;;;;;;;8.99;52.95;102318.91;5034675;28;20067;-59
2022/04/03 08:35:17;;;;;;;2.92;2.03;;;;;;;9.56;50.98;102316.28;5034588;28;20066;-59
2022/04/03 08:37:44;;;;;;;5.68;2.33;;;;;;;10.01;48.63;102320.41;5033802;28;20025;-59
2022/04/03 08:40:11;;;;;;;4.63;2.45;;;;;;;10.30;48.17;102313.81;5034142;28;20079;-57
2022/04/03 08:42:36;;;;;;;6.57;1.63;;;;;;;9.99;48.85;102315.16;5033558;28;20047;-57
2022/04/03 08:45:04;;;;;;;3.05;1.60;;;;;;;9.55;48.91;102318.88;5034147;28;20104;-58
2022/04/03 08:47:30;;;;;;;3.83;1.73;;;;;;;9.82;48.92;102308.81;5034131;28;20528;-58
2022/04/03 08:49:59;;;;;;;2.85;1.80;;;;;;;9.98;46.75;102315.13;5034680;28;20033;-59
2022/04/03 08:52:26;;;;;;;4.03;1.70;;;;;;;10.25;47.96;102325.94;5033972;28;20033;-59
2022/04/03 08:54:51;;;;;;;6.82;1.85;;;;;;;10.32;45.91;102319.06;5033761;28;20037;-59
2022/04/03 08:57:17;;;;;;;3.83;1.52;;;;;;;10.43;45.60;102314.81;5033603;28;20080;-59
2022/04/03 08:59:43;;;;;;;3.97;1.73;;;;;;;10.26;46.12;102322.47;5034068;28;20369;-59
2022/04/03 09:02:12;;;;;;;4.15;2.10;;;;;;;9.73;46.59;102320.00;5034277;28;20104;-59
2022/04/03 09:04:37;;;;;;;3.95;2.22;;;;;;;9.29;48.98;102332.44;5034487;28;20413;-59
2022/04/03 09:07:02;;;;;;;3.10;2.10;;;;;;;8.90;49.64;102323.94;5034377;28;20037;-59
2022/04/03 09:09:28;;;;;;;5.50;2.53;;;;;;;8.64;52.03;102329.59;5034124;28;20044;-59
2022/04/03 09:12:26;;;;;;;4.95;2.10;;;;;;;8.26;54.94;102322.75;5033752;28;20037;-59
2022/04/03 09:14:52;;;;;;;4.10;2.13;;;;;;;8.15;51.47;102319.91;4995788;28;20485;-57
2022/04/03 09:17:44;;;;;;;3.65;2.20;;;;;;;8.29;53.79;102326.28;5033545;28;20048;-59
2022/04/03 09:20:12;;;;;;;;;;;;;;;8.50;55.02;102315.41;5031383;28;20475;-59
2022/04/03 09:22:38;;;;;;;4.38;2.25;;;;;;;8.54;52.06;102317.22;5033119;28;19960;-60
2022/04/03 09:25:05;;;;;;;4.72;2.45;;;;;;;8.83;51.64;102309.91;5032843;28;20068;-59
2022/04/03 09:27:47;;;;;;;2.75;2.10;;;;;;;9.08;51.93;102304.25;5034185;28;20046;-60
2022/04/03 09:30:12;;;;;;;4.63;2.35;;;;;;;9.05;50.02;102301.59;5033578;28;20037;-59
2022/04/03 09:32:55;;;;;;;3.97;2.08;;;;;;;8.88;51.76;102297.81;5033979;28;20031;-59
2022/04/03 09:35:24;;;;;;;2.70;2.00;;;;;;;8.84;50.67;102300.34;5034274;28;20037;-59
2022/04/03 09:38:15;;;;;;;3.38;2.28;;;;;;;8.49;52.62;102303.19;5037279;28;20120;-59
2022/04/03 09:40:47;;;;;;;5.47;2.25;;;;;;;7.97;51.45;102301.28;5037358;28;20033;-59
2022/04/03 09:43:29;;;;;;;3.42;2.08;;;;;;;7.60;51.71;102305.72;5037742;28;20029;-59
2022/04/03 09:45:58;;;;;;;5.88;2.28;;;;;;;7.88;52.15;102301.09;5036660;28;20037;-59
2022/04/03 09:48:48;;;;;;;3.22;2.30;;;;;;;8.13;54.38;102292.94;5036829;28;20025;-59
2022/04/03 09:51:22;;;;;;;3.40;1.75;;;;;;;8.45;51.32;102296.19;5037298;28;20155;-59
2022/04/03 09:53:58;;;;;;;3.15;1.30;;;;;;;8.11;50.64;102299.84;5037228;28;20060;-59
2022/04/03 09:56:23;;;;;;;3.60;1.40;;;;;;;7.76;51.23;102301.72;5037109;28;20033;-59
2022/04/03 09:58:51;;;;;;;2.57;1.57;;;;;;;7.79;52.07;102291.38;5036652;28;20037;-59
2022/04/03 10:01:34;;;;;;;3.67;1.50;;;;;;;7.53;51.70;102292.53;5037198;28;20103;-59
2022/04/03 10:04:00;;;;;;;;;;;;;;;7.68;54.93;102288.53;5037658;28;20064;-59
2022/04/03 10:06:26;;;;;;;3.70;1.83;;;;;;;8.01;52.11;102279.63;5037113;28;19909;-59
2022/04/03 10:08:52;;;;;;;4.25;1.75;;;;;;;8.35;50.52;102278.59;5036994;28;20072;-59
2022/04/03 10:11:18;;;;;;;2.35;1.40;;;;;;;8.46;49.07;102266.66;5036948;28;20041;-59
2022/04/03 10:13:44;;;;;;;2.17;1.52;;;;;;;8.66;50.36;102274.81;5036815;28;20040;-59
2022/04/03 10:16:11;;;;;;;4.10;1.48;;;;;;;9.16;49.88;102262.59;5035899;28;20044;-60
2022/04/03 10:18:37;;;;;;;3.13;1.50;;;;;;;9.62;45.66;102251.06;5035290;28;20037;-60
2022/04/03 10:21:04;;;;;;;3.17;1.60;;;;;;;10.19;46.79;102263.09;5036519;28;20099;-60
2022/04/03 10:23:30;;;;;;;3.75;1.40;;;;;;;10.48;45.64;102263.41;5037123;28;20029;-60
2022/04/03 10:25:57;;;;;;;2.92;1.67;;;;;;;10.32;44.15;102264.09;5036563;28;20087;-60
2022/04/03 10:28:23;;;;;;;2.38;1.23;;;;;;;9.82;43.70;102264.38;5036906;28;20048;-60
2022/04/03 10:30:58;;;;;;;2.55;1.42;;;;;;;9.04;45.89;102258.03;5036708;28;20045;-60
2022/04/03 10:33:24;;;;;;;1.92;1.17;;;;;;;8.44;47.16;102263.13;5036792;28;20336;-60
2022/04/03 10:36:03;;;;;;;3.35;1.30;;;;;;;8.26;49.25;102263.63;5036559;28;20064;-60
2022/04/03 10:38:44;;;;;;;5.85;1.40;;;;;;;8.25;49.73;102261.88;5036499;28;20038;-60
2022/04/03 10:41:31;;;;;;;4.03;1.30;;;;;;;8.96;50.75;102249.22;5036307;28;20116;-60
2022/04/03 10:44:15;;;;;;;3.05;1.70;;;;;;;9.69;48.92;102247.66;5036345;28;20044;-60
2022/04/03 10:47:02;;;;;;;2.67;1.40;;;;;;;9.81;47.32;102252.16;5035673;28;20037;-61
2022/04/03 10:49:37;;;;;;;3.22;1.73;;;;;;;9.58;45.71;102251.84;5036772;28;20061;-60
2022/04/03 10:52:22;;;;;;;3.28;1.42;;;;;;;9.55;46.25;102246.59;5036526;28;20034;-60
2022/04/03 10:54:58;;;;;;;4.53;1.40;;;;;;;9.65;46.54;102242.38;5036221;28;20048;-57
2022/04/03 10:57:43;;;;;;;2.80;1.77;;;;;;;9.70;47.54;102238.94;5035899;28;20116;-55
2022/04/03 11:00:11;;;;;;;2.47;1.55;;;;;;;9.55;44.36;102241.34;5035811;28;20030;-54
2022/04/03 11:02:37;;;;;;;2.50;1.25;;;;;;;9.34;44.76;102236.75;5036127;28;20060;-59
2022/04/03 11:05:28;;;;;;;2.78;1.50;;;;;;;9.23;47.39;102237.44;5036357;28;20034;-58
2022/04/03 11:07:59;;;;;;;3.47;1.80;;;;;;;9.07;47.10;102233.72;5035715;28;20040;-59
2022/04/03 11:10:52;;;;;;;5.33;1.60;;;;;;;9.22;48.07;102233.94;5035894;28;20037;-59
2022/04/03 11:13:21;;;;;;;2.85;1.77;;;;;;;9.30;47.13;102239.28;5035935;28;20028;-59
2022/04/03 11:15:53;;;;;;;3.97;1.60;;;;;;;9.34;46.56;102235.88;5035736;28;20033;-59
2022/04/03 11:18:34;;;;;;;2.60;1.60;;;;;;;9.42;46.71;102227.25;5035536;28;20453;-59
2022/04/03 11:21:05;;;;;;;3.75;1.50;;;;;;;9.49;44.47;102230.84;5035506;28;20052;-57
2022/04/03 11:23:34;;;;;;;4.45;1.80;;;;;;;9.63;44.94;102220.56;5035782;28;20122;-58
2022/04/03 11:26:01;;;;;;;2.75;1.40;;;;;;;9.67;44.91;102227.59;5035761;28;20029;-58
2022/04/03 11:28:26;;;;;;;3.22;1.63;;;;;;;9.57;45.08;102223.97;5035447;28;20124;-60